createdAt,value
2022-09-10T00:02:16.396Z,1.30
2022-09-10T00:04:43.814Z,1.20
2022-09-10T00:07:11.227Z,1.37
2022-09-10T00:09:38.513Z,1.20
2022-09-10T00:12:05.897Z,1.17
2022-09-10T00:14:33.238Z,1.40
2022-09-10T00:17:00.571Z,1.03
2022-09-10T00:19:28.515Z,1.40
2022-09-10T00:21:55.839Z,1.20
2022-09-10T00:24:23.302Z,1.60
2022-09-10T00:26:50.814Z,1.43
2022-09-10T00:29:19.731Z,1.40
2022-09-10T00:31:47.167Z,1.20
2022-09-10T00:34:14.680Z,1.30
2022-09-10T00:36:43.930Z,1.23
2022-09-10T00:39:13.054Z,1.60
2022-09-10T00:41:41.584Z,1.10
2022-09-10T00:44:31.549Z,1.20
2022-09-10T00:47:01.426Z,1.27
2022-09-10T00:49:33.122Z,1.37
2022-09-10T00:52:01.121Z,1.17
2022-09-10T00:54:30.154Z,1.00
2022-09-10T00:56:59.493Z,1.10
2022-09-10T00:59:27.420Z,0.93
2022-09-10T01:01:55.836Z,0.90
2022-09-10T01:04:23.468Z,1.10
2022-09-10T01:06:53.685Z,1.10
2022-09-10T01:09:21.932Z,1.23
2022-09-10T01:12:04.973Z,1.23
2022-09-10T01:14:59.346Z,0.93
2022-09-10T01:17:45.637Z,0.83
2022-09-10T01:20:19.888Z,0.93
2022-09-10T01:23:18.079Z,0.87
2022-09-10T01:26:04.126Z,0.90
2022-09-10T01:28:39.921Z,0.90
2022-09-10T01:31:12.994Z,1.20
2022-09-10T01:33:43.357Z,0.90
2022-09-10T01:36:17.134Z,0.90
2022-09-10T01:38:44.486Z,0.90
2022-09-10T01:41:13.544Z,0.77
2022-09-10T01:43:43.011Z,1.00
2022-09-10T01:46:36.987Z,1.00
2022-09-10T01:49:13.847Z,1.10
2022-09-10T01:51:51.867Z,1.00
2022-09-10T01:54:26.292Z,1.03
2022-09-10T01:57:13.675Z,1.17
2022-09-10T01:59:56.352Z,1.20
2022-09-10T02:02:53.279Z,1.10
2022-09-10T02:05:23.286Z,1.10
2022-09-10T02:07:58.413Z,1.10
2022-09-10T02:10:25.806Z,1.40
2022-09-10T02:12:53.285Z,1.33
2022-09-10T02:15:41.946Z,1.80
2022-09-10T02:18:22.966Z,1.30
2022-09-10T02:20:51.146Z,1.03
2022-09-10T02:23:21.273Z,1.07
2022-09-10T02:25:50.483Z,1.00
2022-09-10T02:28:17.943Z,1.03
2022-09-10T02:30:48.241Z,1.10
2022-09-10T02:33:16.298Z,1.13
2022-09-10T02:35:43.913Z,1.60
2022-09-10T02:38:11.702Z,1.20
2022-09-10T02:40:39.303Z,1.40
2022-09-10T02:43:08.474Z,1.67
2022-09-10T02:45:36.660Z,1.20
2022-09-10T02:48:04.221Z,1.30
2022-09-10T02:50:33.270Z,1.83
2022-09-10T02:53:01.219Z,1.40
2022-09-10T02:55:28.876Z,1.10
2022-09-10T02:57:56.322Z,1.10
2022-09-10T03:00:24.450Z,1.30
2022-09-10T03:02:51.774Z,0.90
2022-09-10T03:05:19.171Z,1.30
2022-09-10T03:07:47.443Z,1.10
2022-09-10T03:10:15.115Z,1.10
2022-09-10T03:12:42.426Z,0.90
2022-09-10T03:15:11.147Z,1.10
2022-09-10T03:17:38.414Z,1.20
2022-09-10T03:20:06.366Z,1.17
2022-09-10T03:22:34.007Z,1.00
2022-09-10T03:25:01.468Z,1.10
2022-09-10T03:27:28.785Z,1.27
2022-09-10T03:29:56.248Z,1.27
2022-09-10T03:32:24.021Z,0.97
2022-09-10T03:34:51.934Z,1.00
2022-09-10T03:37:19.405Z,0.90
2022-09-10T03:39:46.833Z,1.00
2022-09-10T03:42:16.533Z,1.30
2022-09-10T03:44:43.976Z,1.07
2022-09-10T03:47:12.269Z,1.43
2022-09-10T03:49:39.922Z,1.00
2022-09-10T03:52:07.869Z,1.00
2022-09-10T03:54:37.392Z,1.23
2022-09-10T03:57:04.811Z,1.20
2022-09-10T03:59:32.676Z,1.00
2022-09-10T04:02:02.933Z,1.00
2022-09-10T04:04:31.932Z,1.00
2022-09-10T04:06:59.470Z,1.07
2022-09-10T04:09:27.872Z,1.10
2022-09-10T04:11:55.503Z,0.87
2022-09-10T04:14:24.365Z,0.90
2022-09-10T04:16:52.309Z,1.10
2022-09-10T04:19:19.781Z,0.83
2022-09-10T04:21:48.693Z,1.20
2022-09-10T04:24:16.062Z,1.10
2022-09-10T04:26:43.879Z,1.10
2022-09-10T04:29:12.974Z,1.00
2022-09-10T04:31:41.311Z,1.10
2022-09-10T04:34:13.339Z,1.20
2022-09-10T04:36:40.770Z,1.00
2022-09-10T04:39:09.178Z,1.23
2022-09-10T04:41:37.281Z,1.33
2022-09-10T04:44:06.242Z,1.00
2022-09-10T04:46:34.407Z,2.33
2022-09-10T04:49:03.508Z,1.30
2022-09-10T04:51:32.837Z,2.17
2022-09-10T04:54:00.179Z,1.23
2022-09-10T04:56:32.838Z,1.57
2022-09-10T04:59:00.908Z,1.10
2022-09-10T05:01:31.287Z,1.20
2022-09-10T05:03:58.658Z,0.97
2022-09-10T05:06:26.200Z,1.10
2022-09-10T05:08:55.597Z,1.07
2022-09-10T05:11:23.686Z,2.17
2022-09-10T05:13:52.068Z,1.40
2022-09-10T05:16:22.399Z,1.30
2022-09-10T05:18:49.801Z,1.10
2022-09-10T05:21:18.387Z,1.90
2022-09-10T05:23:46.060Z,1.40
2022-09-10T05:26:13.341Z,1.17
2022-09-10T05:28:42.602Z,1.70
2022-09-10T05:31:12.904Z,2.47
2022-09-10T05:33:41.659Z,1.10
2022-09-10T05:36:11.614Z,1.23
2022-09-10T05:38:40.877Z,2.03
2022-09-10T05:41:11.888Z,2.90
2022-09-10T05:43:44.291Z,1.53
2022-09-10T05:46:12.519Z,1.20
2022-09-10T05:48:42.817Z,1.17
2022-09-10T05:51:12.035Z,2.23
2022-09-10T05:53:41.621Z,1.20
2022-09-10T05:56:09.249Z,1.33
2022-09-10T05:58:38.223Z,2.30
2022-09-10T06:01:07.538Z,1.83
2022-09-10T06:03:35.108Z,3.23
2022-09-10T06:06:03.194Z,2.37
2022-09-10T06:08:35.590Z,1.90
2022-09-10T06:11:10.531Z,2.93
2022-09-10T06:13:42.230Z,1.57
2022-09-10T06:16:10.162Z,1.43
2022-09-10T06:18:38.713Z,2.90
2022-09-10T06:21:15.801Z,3.07
2022-09-10T06:23:45.973Z,3.17
2022-09-10T06:26:20.119Z,2.90
2022-09-10T06:28:52.844Z,2.03
2022-09-10T06:31:20.210Z,2.80
2022-09-10T06:33:50.308Z,3.17
2022-09-10T06:36:20.778Z,2.57
2022-09-10T06:38:50.100Z,2.13
2022-09-10T06:41:18.499Z,2.70
2022-09-10T06:43:53.796Z,3.47
2022-09-10T06:47:09.588Z,2.50
2022-09-10T06:49:21.686Z,2.70
2022-09-10T06:51:50.186Z,2.10
2022-09-10T06:54:18.835Z,2.77
2022-09-10T06:56:47.088Z,3.88
2022-09-10T06:59:14.771Z,3.43
2022-09-10T07:01:47.994Z,2.43
2022-09-10T07:04:16.137Z,1.90
2022-09-10T07:06:45.915Z,3.60
2022-09-10T07:09:16.360Z,2.27
2022-09-10T07:11:52.779Z,4.73
2022-09-10T07:14:20.780Z,3.27
2022-09-10T07:16:50.242Z,2.20
2022-09-10T07:19:18.839Z,2.53
2022-09-10T07:21:47.920Z,3.50
2022-09-10T07:24:18.119Z,3.77
2022-09-10T07:26:57.993Z,2.60
2022-09-10T07:29:25.571Z,3.00
2022-09-10T07:31:54.140Z,3.87
2022-09-10T07:34:24.376Z,3.70
2022-09-10T07:36:51.696Z,3.30
2022-09-10T07:39:25.492Z,3.07
2022-09-10T07:41:53.839Z,3.33
2022-09-10T07:44:25.061Z,2.17
2022-09-10T07:46:53.109Z,2.50
2022-09-10T07:49:21.174Z,2.30
2022-09-10T07:51:57.671Z,3.10
2022-09-10T07:54:29.142Z,3.20
2022-09-10T07:56:57.600Z,2.63
2022-09-10T07:59:25.211Z,2.90
2022-09-10T08:02:00.164Z,3.10
2022-09-10T08:04:35.906Z,2.50
2022-09-10T08:07:05.919Z,1.90
2022-09-10T08:09:35.562Z,3.13
2022-09-10T08:12:04.254Z,2.80
2022-09-10T08:14:31.665Z,3.53
2022-09-10T08:16:59.058Z,2.80
2022-09-10T08:19:26.504Z,2.50
2022-09-10T08:21:54.069Z,2.33
2022-09-10T08:24:28.886Z,2.70
2022-09-10T08:26:56.244Z,3.70
2022-09-10T08:29:23.770Z,3.37
2022-09-10T08:31:51.247Z,2.57
2022-09-10T08:34:23.750Z,3.03
2022-09-10T08:36:59.503Z,2.47
2022-09-10T08:39:27.404Z,3.10
2022-09-10T08:41:59.251Z,2.73
2022-09-10T08:44:31.290Z,2.53
2022-09-10T08:47:06.660Z,2.90
2022-09-10T08:49:44.917Z,2.67
2022-09-10T08:52:21.558Z,2.87
2022-09-10T08:54:57.743Z,2.70
2022-09-10T08:57:28.577Z,3.17
2022-09-10T08:59:56.985Z,2.13
2022-09-10T09:02:48.496Z,2.70
2022-09-10T09:05:22.869Z,2.77
2022-09-10T09:07:53.699Z,2.93
2022-09-10T09:10:28.074Z,2.83
2022-09-10T09:13:09.335Z,2.70
2022-09-10T09:15:41.623Z,2.57
2022-09-10T09:18:28.086Z,3.10
2022-09-10T09:20:57.305Z,3.00
2022-09-10T09:23:27.274Z,2.70
2022-09-10T09:26:04.423Z,2.20
2022-09-10T09:28:49.266Z,2.40
2022-09-10T09:31:20.587Z,2.67
2022-09-10T09:33:51.088Z,2.60
2022-09-10T09:36:20.161Z,2.10
2022-09-10T09:38:50.846Z,2.40
2022-09-10T09:41:30.894Z,2.20
2022-09-10T09:44:00.847Z,2.50
2022-09-10T09:46:28.253Z,2.20
2022-09-10T09:49:00.464Z,2.43
2022-09-10T09:51:30.617Z,2.10
2022-09-10T09:54:34.659Z,2.00
2022-09-10T09:56:54.590Z,2.77
2022-09-10T09:59:26.659Z,1.97
2022-09-10T10:01:54.839Z,2.10
2022-09-10T10:04:24.326Z,2.57
2022-09-10T10:06:56.289Z,2.03
2022-09-10T10:09:26.121Z,1.90
2022-09-10T10:11:57.822Z,2.50
2022-09-10T10:14:30.932Z,2.30
2022-09-10T10:17:00.908Z,2.70
2022-09-10T10:19:34.011Z,2.63
2022-09-10T10:22:19.876Z,1.80
2022-09-10T10:24:48.576Z,2.30
2022-09-10T10:27:34.109Z,2.37
2022-09-10T10:30:21.717Z,2.17
2022-09-10T10:32:56.169Z,2.40
2022-09-10T10:35:29.617Z,2.80
2022-09-10T10:38:03.191Z,2.30
2022-09-10T10:40:33.140Z,2.40
2022-09-10T10:43:19.099Z,2.00
2022-09-10T10:45:55.122Z,1.80
2022-09-10T10:48:34.428Z,2.37
2022-09-10T10:51:21.970Z,2.10
2022-09-10T10:53:59.474Z,1.87
2022-09-10T10:56:33.069Z,2.23
2022-09-10T10:59:09.413Z,2.23
2022-09-10T11:01:49.215Z,2.00
2022-09-10T11:04:29.798Z,2.13
2022-09-10T11:07:02.354Z,2.10
2022-09-10T11:09:31.194Z,2.10
2022-09-10T11:12:03.836Z,2.30
2022-09-10T11:14:48.792Z,1.90
2022-09-10T11:17:23.230Z,2.13
2022-09-10T11:20:24.758Z,2.20
2022-09-10T11:22:51.120Z,2.13
2022-09-10T11:25:24.434Z,2.07
2022-09-10T11:28:07.419Z,1.93
2022-09-10T11:30:35.651Z,1.67
2022-09-10T11:33:09.988Z,2.00
2022-09-10T11:35:48.454Z,1.97
2022-09-10T11:38:28.065Z,2.10
2022-09-10T11:41:14.147Z,1.80
2022-09-10T11:44:00.079Z,1.60
2022-09-10T11:46:32.236Z,1.30
2022-09-10T11:49:06.103Z,1.50
2022-09-10T11:51:37.286Z,1.40
2022-09-10T11:54:06.908Z,1.20
2022-09-10T11:56:40.684Z,1.43
2022-09-10T11:59:16.146Z,1.53
2022-09-10T12:01:49.594Z,1.60
2022-09-10T12:04:39.738Z,1.50
2022-09-10T12:07:25.699Z,1.70
2022-09-10T12:10:02.299Z,1.40
2022-09-10T12:12:50.241Z,1.40
2022-09-10T12:15:25.638Z,1.50
2022-09-10T12:17:52.878Z,1.70
2022-09-10T12:20:29.264Z,1.57
2022-09-10T12:22:57.207Z,1.57
2022-09-10T12:25:24.484Z,1.57
2022-09-10T12:27:52.996Z,1.50
2022-09-10T12:30:29.229Z,1.63
2022-09-10T12:33:01.096Z,1.67
2022-09-10T12:35:31.424Z,1.30
2022-09-10T12:38:17.503Z,1.33
2022-09-10T12:40:45.784Z,1.20
2022-09-10T12:43:31.690Z,1.23
2022-09-10T12:46:03.335Z,1.60
2022-09-10T12:48:31.596Z,1.40
2022-09-10T12:51:00.624Z,1.77
2022-09-10T12:53:47.285Z,1.47
2022-09-10T12:56:34.806Z,1.40
2022-09-10T12:59:02.085Z,1.33
2022-09-10T13:01:29.472Z,1.73
2022-09-10T13:03:58.421Z,1.67
2022-09-10T13:06:40.587Z,1.80
2022-09-10T13:09:26.324Z,1.50
2022-09-10T13:11:55.508Z,1.23
2022-09-10T13:14:32.382Z,1.63
2022-09-10T13:16:59.679Z,1.37
2022-09-10T13:19:26.895Z,1.53
2022-09-10T13:21:55.139Z,1.50
2022-09-10T13:24:35.707Z,1.47
2022-09-10T13:27:22.746Z,1.20
2022-09-10T13:30:10.356Z,1.60
2022-09-10T13:32:44.169Z,1.80
2022-09-10T13:35:20.317Z,1.47
2022-09-10T13:37:53.708Z,1.63
2022-09-10T13:40:21.021Z,1.30
2022-09-10T13:43:07.146Z,1.47
2022-09-10T13:45:34.440Z,1.30
2022-09-10T13:48:10.837Z,1.53
2022-09-10T13:50:57.647Z,1.70
2022-09-10T13:53:26.439Z,1.20
2022-09-10T13:56:01.463Z,1.40
2022-09-10T13:58:35.556Z,1.20
2022-09-10T14:01:04.627Z,1.30
2022-09-10T14:03:33.103Z,1.30
2022-09-10T14:06:05.127Z,1.30
2022-09-10T14:08:35.717Z,1.73
2022-09-10T14:11:02.999Z,1.30
2022-09-10T14:13:32.731Z,1.53
2022-09-10T14:16:01.300Z,1.43
2022-09-10T14:18:37.020Z,1.30
2022-09-10T14:21:04.803Z,1.30
2022-09-10T14:23:32.409Z,1.37
2022-09-10T14:26:13.125Z,1.77
2022-09-10T14:29:12.664Z,1.30
2022-09-10T14:31:40.504Z,1.40
2022-09-10T14:34:34.822Z,1.60
2022-09-10T14:37:03.168Z,1.50
2022-09-10T14:39:30.576Z,1.53
2022-09-10T14:42:30.163Z,1.20
2022-09-10T14:44:57.488Z,1.40
2022-09-10T14:47:29.884Z,1.40
2022-09-10T14:50:15.772Z,1.30
2022-09-10T14:52:43.049Z,1.40
2022-09-10T14:55:11.070Z,1.50
2022-09-10T14:57:38.386Z,1.27
2022-09-10T15:00:05.890Z,1.50
2022-09-10T15:02:33.171Z,1.50
2022-09-10T15:05:00.465Z,1.60
2022-09-10T15:07:27.911Z,0.90
2022-09-10T15:09:55.236Z,1.53
2022-09-10T15:12:24.571Z,1.40
2022-09-10T15:14:52.296Z,1.20
2022-09-10T15:17:19.642Z,1.40
2022-09-10T15:19:48.274Z,1.27
2022-09-10T15:22:20.728Z,1.90
2022-09-10T15:25:08.642Z,1.50
2022-09-10T15:27:35.306Z,1.27
2022-09-10T15:30:02.822Z,1.70
2022-09-10T15:32:30.751Z,1.60
2022-09-10T15:34:58.049Z,1.40
2022-09-10T15:37:25.355Z,1.63
2022-09-10T15:39:53.139Z,1.50
2022-09-10T15:42:21.049Z,1.37
2022-09-10T15:44:48.322Z,1.60
2022-09-10T15:47:15.622Z,1.80
2022-09-10T15:49:42.909Z,1.30
2022-09-10T15:52:10.222Z,1.50
2022-09-10T15:54:37.667Z,1.37
2022-09-10T15:57:06.713Z,1.33
2022-09-10T15:59:34.038Z,1.60
2022-09-10T16:02:01.339Z,1.27
2022-09-10T16:04:30.682Z,1.20
2022-09-10T16:07:02.033Z,1.33
2022-09-10T16:09:29.737Z,1.60
2022-09-10T16:11:57.000Z,1.20
2022-09-10T16:14:24.321Z,1.40
2022-09-10T16:16:51.658Z,1.17
2022-09-10T16:19:19.035Z,1.47
2022-09-10T16:21:46.336Z,1.50
2022-09-10T16:24:13.653Z,1.70
2022-09-10T16:26:42.231Z,1.30
2022-09-10T16:29:19.584Z,1.60
2022-09-10T16:31:46.922Z,1.30
2022-09-10T16:34:16.845Z,1.50
2022-09-10T16:36:44.764Z,1.50
2022-09-10T16:39:13.811Z,1.43
2022-09-10T16:41:41.636Z,1.70
2022-09-10T16:44:09.563Z,1.40
2022-09-10T16:46:38.254Z,1.30
2022-09-10T16:49:06.049Z,1.53
2022-09-10T16:51:35.155Z,1.43
2022-09-10T16:54:04.378Z,1.53
2022-09-10T16:56:34.909Z,1.40
2022-09-10T16:59:02.588Z,1.30
2022-09-10T17:01:31.139Z,1.13
2022-09-10T17:03:58.532Z,1.10
2022-09-10T17:06:27.060Z,1.50
2022-09-10T17:08:55.254Z,1.20
2022-09-10T17:11:22.852Z,1.30
2022-09-10T17:13:50.921Z,1.30
2022-09-10T17:16:30.490Z,1.40
2022-09-10T17:18:58.693Z,1.10
2022-09-10T17:21:26.664Z,1.40
2022-09-10T17:23:54.256Z,1.33
2022-09-10T17:26:21.950Z,1.57
2022-09-10T17:28:53.794Z,1.40
2022-09-10T17:31:21.202Z,2.00
2022-09-10T17:33:48.498Z,2.40
2022-09-10T17:36:15.821Z,1.67
2022-09-10T17:38:43.299Z,1.60
2022-09-10T17:41:14.374Z,1.70
2022-09-10T17:43:42.901Z,1.60
2022-09-10T17:46:11.507Z,1.57
2022-09-10T17:48:39.353Z,1.50
2022-09-10T17:51:07.075Z,1.40
2022-09-10T17:53:35.052Z,1.50
2022-09-10T17:56:03.848Z,1.50
2022-09-10T17:58:33.214Z,1.40
2022-09-10T18:01:05.845Z,1.17
2022-09-10T18:03:33.578Z,1.60
2022-09-10T18:06:04.733Z,1.23
2022-09-10T18:08:32.976Z,1.67
2022-09-10T18:11:07.398Z,1.30
2022-09-10T18:13:35.174Z,1.50
2022-09-10T18:16:06.470Z,1.50
2022-09-10T18:18:35.149Z,1.43
2022-09-10T18:21:15.955Z,1.53
2022-09-10T18:23:44.278Z,1.40
2022-09-10T18:26:12.674Z,1.57
2022-09-10T18:28:39.985Z,1.40
2022-09-10T18:31:07.301Z,1.80
2022-09-10T18:33:36.186Z,1.40
2022-09-10T18:36:03.597Z,1.33
2022-09-10T18:38:31.717Z,1.23
2022-09-10T18:40:58.981Z,1.50
2022-09-10T18:43:26.878Z,1.80
2022-09-10T18:45:54.161Z,1.60
2022-09-10T18:48:21.477Z,1.50
2022-09-10T18:50:48.751Z,1.30
2022-09-10T18:53:16.057Z,1.40
2022-09-10T18:55:43.388Z,1.23
2022-09-10T18:58:10.873Z,1.40
2022-09-10T19:00:39.447Z,1.63
2022-09-10T19:03:08.042Z,1.33
2022-09-10T19:05:37.290Z,1.20
2022-09-10T19:08:04.553Z,1.47
2022-09-10T19:10:31.838Z,1.57
2022-09-10T19:12:59.170Z,1.67
2022-09-10T19:15:28.294Z,1.47
2022-09-10T19:17:55.541Z,1.60
2022-09-10T19:20:26.469Z,1.30
2022-09-10T19:22:53.762Z,1.17
2022-09-10T19:25:22.827Z,1.40
2022-09-10T19:27:50.273Z,1.30
2022-09-10T19:30:17.701Z,1.53
2022-09-10T19:32:44.975Z,1.10
2022-09-10T19:35:12.294Z,1.07
2022-09-10T19:37:39.557Z,1.50
2022-09-10T19:40:07.127Z,1.30
2022-09-10T19:42:34.458Z,1.20
2022-09-10T19:45:01.912Z,1.23
2022-09-10T19:47:29.231Z,1.23
2022-09-10T19:49:59.010Z,1.20
2022-09-10T19:52:26.575Z,1.40
2022-09-10T19:54:54.145Z,1.43
2022-09-10T19:57:21.670Z,1.30
2022-09-10T19:59:48.952Z,1.37
2022-09-10T20:02:16.263Z,1.80
2022-09-10T20:04:43.597Z,1.97
2022-09-10T20:07:10.954Z,1.30
2022-09-10T20:09:40.056Z,1.30
2022-09-10T20:12:08.701Z,1.47
2022-09-10T20:14:35.950Z,1.50
2022-09-10T20:17:03.381Z,1.53
2022-09-10T20:19:30.677Z,1.63
2022-09-10T20:21:57.957Z,1.70
2022-09-10T20:24:28.411Z,1.30
2022-09-10T20:26:55.670Z,1.50
2022-09-10T20:29:25.264Z,1.33
2022-09-10T20:31:52.804Z,1.57
2022-09-10T20:34:21.091Z,1.40
2022-09-10T20:36:51.270Z,1.60
2022-09-10T20:39:20.212Z,1.30
2022-09-10T20:41:47.678Z,1.50
2022-09-10T20:44:16.260Z,1.67
2022-09-10T20:46:43.897Z,1.37
2022-09-10T20:49:11.879Z,1.70
2022-09-10T20:51:40.440Z,1.50
2022-09-10T20:54:09.026Z,1.53
2022-09-10T20:56:36.294Z,1.53
2022-09-10T20:59:03.647Z,1.50
2022-09-10T21:01:31.493Z,1.40
2022-09-10T21:03:59.525Z,1.70
2022-09-10T21:06:31.216Z,1.70
2022-09-10T21:08:59.662Z,1.43
2022-09-10T21:11:28.521Z,1.50
2022-09-10T21:13:57.046Z,1.50
2022-09-10T21:16:28.511Z,1.40
2022-09-10T21:18:57.362Z,1.60
2022-09-10T21:21:26.308Z,1.47
2022-09-10T21:23:54.663Z,1.70
2022-09-10T21:26:25.188Z,1.40
2022-09-10T21:28:53.340Z,1.33
2022-09-10T21:31:20.714Z,1.70
2022-09-10T21:33:48.083Z,1.53
2022-09-10T21:36:16.936Z,1.30
2022-09-10T21:38:48.229Z,1.43
2022-09-10T21:41:16.762Z,1.40
2022-09-10T21:43:44.994Z,1.50
2022-09-10T21:46:13.548Z,1.50
2022-09-10T21:48:42.364Z,1.60
2022-09-10T21:51:14.136Z,1.70
2022-09-10T21:53:42.160Z,1.40
2022-09-10T21:56:10.726Z,1.73
2022-09-10T21:58:38.152Z,1.60
2022-09-10T22:01:12.034Z,1.70
2022-09-10T22:03:39.859Z,1.50
2022-09-10T22:06:10.351Z,1.33
2022-09-10T22:08:38.635Z,1.60
2022-09-10T22:11:25.604Z,1.50
2022-09-10T22:13:54.718Z,1.43
2022-09-10T22:16:23.047Z,1.47
2022-09-10T22:18:50.653Z,1.70
2022-09-10T22:21:18.340Z,1.53
2022-09-10T22:23:45.593Z,1.73
2022-09-10T22:26:14.318Z,1.83
2022-09-10T22:28:42.153Z,1.70
2022-09-10T22:31:10.063Z,1.63
2022-09-10T22:33:41.876Z,1.60
2022-09-10T22:36:10.106Z,1.53
2022-09-10T22:38:37.471Z,1.50
2022-09-10T22:41:05.589Z,1.70
2022-09-10T22:43:33.035Z,1.60
2022-09-10T22:46:00.297Z,1.37
2022-09-10T22:48:27.650Z,1.67
2022-09-10T22:50:55.372Z,1.80
2022-09-10T22:53:22.720Z,1.60
2022-09-10T22:55:50.894Z,1.60
2022-09-10T22:58:19.070Z,1.80
2022-09-10T23:00:46.383Z,1.67
2022-09-10T23:03:13.634Z,1.50
2022-09-10T23:05:41.625Z,1.70
2022-09-10T23:08:08.898Z,1.83
2022-09-10T23:10:36.162Z,1.53
2022-09-10T23:13:04.064Z,1.80
2022-09-10T23:15:32.325Z,1.90
2022-09-10T23:17:59.860Z,1.60
2022-09-10T23:20:27.731Z,1.90
2022-09-10T23:22:55.015Z,1.53
2022-09-10T23:25:22.294Z,1.57
2022-09-10T23:27:51.177Z,1.40
2022-09-10T23:30:18.643Z,1.60
2022-09-10T23:32:46.587Z,1.67
2022-09-10T23:35:13.848Z,1.53
2022-09-10T23:37:41.151Z,1.90
2022-09-10T23:40:12.078Z,1.90
2022-09-10T23:42:39.457Z,1.57
2022-09-10T23:45:07.157Z,1.90
2022-09-10T23:47:34.696Z,1.87
2022-09-10T23:50:02.046Z,1.87
2022-09-10T23:52:29.560Z,1.97
2022-09-10T23:54:56.839Z,1.97
2022-09-10T23:57:24.309Z,1.80
2022-09-10T23:59:51.565Z,1.60
